KJAN/JAN METAR and TAF weather

Enter ICAO airport designator
Station Type Date Time Source
KJAN METAR 2020/10/20 17:54 UTC NOAA

KJAN 201754Z 11007KT 10SM CLR 29/17 A3010 RMK AO2 SLP189 T02890167 10289 20156 58016


Station Type Date Time Source
KJAN Decoded METAR 2020/10/20 17:54 UTC NOAA

Jackson, Jackson International Airport, MS, United States (KJAN) 32-19-11N 090-04-39W 89M
Oct 20, 2020 - 01:54 PM EDT / 2020.10.20 1754 UTC
Wind: from the ESE (110 degrees) at 8 MPH (7 KT):0
Visibility: 10 mile(s):0
Sky conditions: clear
Temperature: 84.0 F (28.9 C)
Dew Point: 62.1 F (16.7 C)
Relative Humidity: 47%
Pressure (altimeter): 30.1 in. Hg (1019 hPa)
Pressure tendency: 0.05 inches (1.6 hPa) lower than three hours ago
ob: KJAN 201754Z 11007KT 10SM CLR 29/17 A3010 RMK AO2 SLP189 T02890167 10289 20156 58016
cycle: 18

Station Type Date Time Source
KJAN TAF 2020/10/20 18:24 UTC NOAA

TAF KJAN 201720Z 2018/2118 13006KT P6SM SCT040
FM211000 12003KT 2SM BR FEW002
FM211300 11006KT P6SM SKC

Example: see airport list